createdAt,value
2022-08-20T00:04:24.010Z,27.33
2022-08-20T00:10:55.680Z,27.31
2022-08-20T00:17:36.839Z,27.26
2022-08-20T00:24:02.843Z,27.25
2022-08-20T00:30:33.846Z,27.24
2022-08-20T00:37:12.254Z,27.22
2022-08-20T00:43:48.103Z,27.2
2022-08-20T00:50:41.384Z,27.23
2022-08-20T00:57:23.927Z,27.21
2022-08-20T01:04:05.377Z,27.26
2022-08-20T01:10:41.122Z,27.19
2022-08-20T01:17:16.562Z,27.19
2022-08-20T01:24:02.242Z,27.16
2022-08-20T01:30:45.266Z,27.16
2022-08-20T01:37:15.137Z,27.14
2022-08-20T01:45:07.302Z,27
2022-08-20T01:51:55.544Z,27
2022-08-20T01:58:38.757Z,27
2022-08-20T02:05:20.896Z,27.02
2022-08-20T02:12:16.117Z,27.01
2022-08-20T02:19:02.579Z,27.02
2022-08-20T02:25:53.405Z,26.96
2022-08-20T02:32:32.590Z,27.02
2022-08-20T02:39:06.524Z,26.97
2022-08-20T02:45:42.369Z,27.03
2022-08-20T02:52:22.732Z,26.97
2022-08-20T02:58:44.153Z,26.93
2022-08-20T03:05:07.092Z,27.01
2022-08-20T03:11:50.674Z,27.08
2022-08-20T03:18:36.988Z,27.11
2022-08-20T03:25:18.530Z,27.17
2022-08-20T03:31:57.653Z,27.18
2022-08-20T03:38:32.284Z,27.23
2022-08-20T03:45:04.639Z,27.22
2022-08-20T03:51:51.472Z,27.27
2022-08-20T03:58:57.133Z,27.28
2022-08-20T04:05:28.256Z,27.33
2022-08-20T04:11:58.088Z,27.3
2022-08-20T04:18:39.175Z,27.3
2022-08-20T04:25:10.409Z,27.31
2022-08-20T04:31:48.577Z,27.29
2022-08-20T04:38:15.703Z,27.32
2022-08-20T04:44:49.241Z,27.33
2022-08-20T04:51:16.221Z,27.36
2022-08-20T04:57:51.091Z,27.38
2022-08-20T05:04:25.396Z,27.35
2022-08-20T05:11:01.224Z,27.35
2022-08-20T05:17:47.255Z,27.34
2022-08-20T05:24:24.217Z,27.32
2022-08-20T05:30:56.602Z,27.35
2022-08-20T05:37:35.640Z,27.41
2022-08-20T05:44:10.286Z,27.4
2022-08-20T05:50:38.783Z,27.41
2022-08-20T05:57:10.239Z,27.48
2022-08-20T06:03:38.539Z,27.44
2022-08-20T06:10:18.154Z,27.49
2022-08-20T06:16:58.852Z,27.52
2022-08-20T06:23:40.214Z,27.54
2022-08-20T06:30:21.236Z,27.43
2022-08-20T06:36:50.243Z,27.51
2022-08-20T06:43:20.612Z,27.48
2022-08-20T06:49:53.290Z,27.49
2022-08-20T06:56:22.507Z,27.49
2022-08-20T07:02:53.767Z,27.61
2022-08-20T07:09:30.652Z,27.64
2022-08-20T07:16:01.281Z,27.6
2022-08-20T07:22:42.574Z,27.77
2022-08-20T07:29:22.564Z,27.75
2022-08-20T07:35:49.371Z,27.67
2022-08-20T07:42:28.759Z,27.73
2022-08-20T07:49:01.475Z,27.65
2022-08-20T07:55:33.409Z,27.75
2022-08-20T08:02:18.342Z,27.71
2022-08-20T08:08:57.085Z,27.62
2022-08-20T08:15:37.264Z,27.62
2022-08-20T08:22:20.305Z,27.62
2022-08-20T08:28:44.631Z,27.59
2022-08-20T08:35:19.716Z,27.58
2022-08-20T08:42:02.657Z,27.62
2022-08-20T08:48:56.598Z,27.63
2022-08-20T08:55:48.316Z,27.65
2022-08-20T09:02:32.779Z,27.68
2022-08-20T09:09:12.731Z,27.67
2022-08-20T09:15:56.562Z,27.68
2022-08-20T09:22:21.290Z,27.68
2022-08-20T09:28:52.402Z,27.71
2022-08-20T09:35:21.281Z,27.75
2022-08-20T09:41:52.358Z,27.75
2022-08-20T09:48:35.311Z,27.86
2022-08-20T09:55:05.282Z,27.78
2022-08-20T10:01:44.780Z,27.76
2022-08-20T10:08:15.260Z,27.76
2022-08-20T10:14:47.412Z,27.77
2022-08-20T10:21:20.327Z,27.81
2022-08-20T10:27:50.873Z,27.8
2022-08-20T10:34:18.851Z,27.69
2022-08-20T10:40:41.397Z,27.69
2022-08-20T10:47:25.751Z,27.73
2022-08-20T10:53:56.305Z,27.73
2022-08-20T11:00:28.244Z,27.69
2022-08-20T11:06:52.553Z,27.73
2022-08-20T11:13:23.873Z,27.75
2022-08-20T11:19:58.622Z,27.77
2022-08-20T11:26:39.439Z,27.77
2022-08-20T11:33:09.527Z,27.74
2022-08-20T11:39:30.398Z,27.76
2022-08-20T11:46:00.349Z,27.75
2022-08-20T11:52:33.373Z,27.75
2022-08-20T11:59:10.895Z,27.74
2022-08-20T12:05:45.454Z,27.75
2022-08-20T12:12:24.901Z,27.77
2022-08-20T12:18:55.469Z,27.76
2022-08-20T12:25:24.431Z,27.76
2022-08-20T12:32:04.632Z,27.77
2022-08-20T12:38:48.348Z,27.76
2022-08-20T12:45:17.468Z,27.81
2022-08-20T12:52:01.426Z,27.87
2022-08-20T12:58:37.501Z,27.87
2022-08-20T13:05:13.500Z,28.07
2022-08-20T13:11:49.574Z,28.03
2022-08-20T13:18:14.884Z,28.04
2022-08-20T13:24:41.518Z,28.25
2022-08-20T13:31:13.433Z,28.5
2022-08-20T13:37:36.521Z,28.48
2022-08-20T13:44:09.681Z,28.43
2022-08-20T13:50:40.488Z,28.37
2022-08-20T13:57:06.493Z,28.46
2022-08-20T14:03:38.898Z,28.41
2022-08-20T14:10:16.259Z,28.4
2022-08-20T14:16:48.704Z,28.62
2022-08-20T14:23:29.875Z,28.66
2022-08-20T14:30:00.742Z,28.77
2022-08-20T14:36:24.872Z,28.86
2022-08-20T14:42:58.044Z,28.97
2022-08-20T14:49:38.639Z,29.21
2022-08-20T14:56:07.723Z,29.28
2022-08-20T15:02:45.854Z,29.03
2022-08-20T15:09:17.771Z,28.97
2022-08-20T15:15:53.775Z,29.06
2022-08-20T15:22:36.103Z,29.01
2022-08-20T15:29:05.735Z,29.03
2022-08-20T15:35:45.106Z,29.13
2022-08-20T15:42:18.757Z,29.21
2022-08-20T15:48:52.935Z,29.23
2022-08-20T15:55:43.663Z,29.17
2022-08-20T16:03:03.270Z,29.22
2022-08-20T16:10:02.226Z,29.25
2022-08-20T16:17:08.773Z,29.49
2022-08-20T16:24:12.852Z,29.34
2022-08-20T16:31:15.857Z,29.31
2022-08-20T16:38:23.946Z,29.23
2022-08-20T16:45:21.795Z,29.15
2022-08-20T16:52:24.032Z,29.04
2022-08-20T16:58:56.271Z,29
2022-08-20T17:06:00.363Z,28.94
2022-08-20T17:13:02.243Z,28.81
2022-08-20T17:19:55.249Z,28.83
2022-08-20T17:26:57.889Z,28.71
2022-08-20T17:33:45.005Z,28.51
2022-08-20T17:40:30.942Z,28.44
2022-08-20T17:47:40.816Z,28.34
2022-08-20T17:54:43.103Z,28.18
2022-08-20T18:01:32.031Z,28.09
2022-08-20T18:08:24.774Z,28
2022-08-20T18:15:24.212Z,27.94
2022-08-20T18:22:34.993Z,27.83
2022-08-20T18:29:44.803Z,27.83
2022-08-20T18:36:44.866Z,27.76
2022-08-20T18:43:51.911Z,27.66
2022-08-20T18:50:56.241Z,27.63
2022-08-20T18:57:55.280Z,27.58
2022-08-20T19:04:42.159Z,27.54
2022-08-20T19:11:45.062Z,27.5
2022-08-20T19:18:54.957Z,27.46
2022-08-20T19:25:38.990Z,27.51
2022-08-20T19:32:33.941Z,27.47
2022-08-20T19:39:08.416Z,27.47
2022-08-20T19:46:16.120Z,27.45
2022-08-20T19:53:16.270Z,27.44
2022-08-20T20:00:11.961Z,27.41
2022-08-20T20:06:53.961Z,27.39
2022-08-20T20:13:44.928Z,27.4
2022-08-20T20:20:34.780Z,27.38
2022-08-20T20:27:28.977Z,27.37
2022-08-20T20:34:31.339Z,27.35
2022-08-20T20:41:53.946Z,27.37
2022-08-20T20:48:50.035Z,27.38
2022-08-20T20:55:41.985Z,27.31
2022-08-20T21:02:15.986Z,27.33
2022-08-20T21:09:07.096Z,27.29
2022-08-20T21:15:43.427Z,27.21
2022-08-20T21:22:14.066Z,27.19
2022-08-20T21:28:46.010Z,27.11
2022-08-20T21:35:23.026Z,27.12
2022-08-20T21:41:54.321Z,27.09
2022-08-20T21:48:26.531Z,27.1
2022-08-20T21:54:59.139Z,27.13
2022-08-20T22:01:43.766Z,27.1
2022-08-20T22:08:19.501Z,27.09
2022-08-20T22:14:57.768Z,27.07
2022-08-20T22:21:31.470Z,27.06
2022-08-20T22:28:00.566Z,27.04
2022-08-20T22:34:37.007Z,27.01
2022-08-20T22:41:09.813Z,27.06
2022-08-20T22:47:39.167Z,27
2022-08-20T22:54:07.072Z,27.04
2022-08-20T23:00:37.077Z,27.03
2022-08-20T23:07:10.102Z,27.02
2022-08-20T23:13:39.135Z,26.97
2022-08-20T23:20:17.027Z,26.94
2022-08-20T23:26:44.383Z,26.93
2022-08-20T23:33:20.185Z,26.93
2022-08-20T23:39:51.129Z,26.96
2022-08-20T23:46:15.405Z,26.88
2022-08-20T23:52:59.312Z,26.95
2022-08-20T23:59:31.100Z,27.05
